createdAt,value
2023-02-14T00:01:32.607Z,17.20
2023-02-14T00:04:01.671Z,17.60
2023-02-14T00:06:35.250Z,17.00
2023-02-14T00:09:03.283Z,18.90
2023-02-14T00:11:31.575Z,16.10
2023-02-14T00:14:18.825Z,15.40
2023-02-14T00:16:46.940Z,17.90
2023-02-14T00:19:16.986Z,21.00
2023-02-14T00:21:45.721Z,17.40
2023-02-14T00:24:16.869Z,17.50
2023-02-14T00:26:45.505Z,19.40
2023-02-14T00:29:16.635Z,17.70
2023-02-14T00:31:45.201Z,19.70
2023-02-14T00:34:15.655Z,21.60
2023-02-14T00:36:45.075Z,17.40
2023-02-14T00:39:15.360Z,14.40
2023-02-14T00:41:43.262Z,19.00
2023-02-14T00:44:13.597Z,15.30
2023-02-14T00:46:42.640Z,17.50
2023-02-14T00:49:10.998Z,17.40
2023-02-14T00:51:39.841Z,14.00
2023-02-14T00:54:07.981Z,18.50
2023-02-14T00:56:36.151Z,15.90
2023-02-14T00:59:04.213Z,14.20
2023-02-14T01:01:32.885Z,14.90
2023-02-14T01:04:00.959Z,12.30
2023-02-14T01:06:29.122Z,14.80
2023-02-14T01:08:58.094Z,17.10
2023-02-14T01:11:28.204Z,17.60
2023-02-14T01:13:58.685Z,15.70
2023-02-14T01:16:28.672Z,16.20
2023-02-14T01:19:00.326Z,16.70
2023-02-14T01:21:33.541Z,18.20
2023-02-14T01:24:05.653Z,20.10
2023-02-14T01:26:35.103Z,14.60
2023-02-14T01:29:05.351Z,16.90
2023-02-14T01:31:35.351Z,16.20
2023-02-14T01:34:04.548Z,16.60
2023-02-14T01:36:39.193Z,17.90
2023-02-14T01:39:15.494Z,21.10
2023-02-14T01:41:50.579Z,17.00
2023-02-14T01:44:18.566Z,20.50
2023-02-14T01:46:46.855Z,19.60
2023-02-14T01:49:22.933Z,21.30
2023-02-14T01:51:57.534Z,19.30
2023-02-14T01:54:27.568Z,19.00
2023-02-14T01:57:00.690Z,24.40
2023-02-14T01:59:36.663Z,24.60
2023-02-14T02:02:06.197Z,26.40
2023-02-14T02:04:40.650Z,23.40
2023-02-14T02:07:23.007Z,24.40
2023-02-14T02:09:56.047Z,25.30
2023-02-14T02:12:30.972Z,19.40
2023-02-14T02:15:00.408Z,24.20
2023-02-14T02:17:52.876Z,24.70
2023-02-14T02:20:48.656Z,24.30
2023-02-14T02:23:44.505Z,27.60
2023-02-14T02:26:35.226Z,25.80
2023-02-14T02:29:22.335Z,28.20
2023-02-14T02:32:16.380Z,25.80
2023-02-14T02:35:21.476Z,30.80
2023-02-14T02:38:14.740Z,26.20
2023-02-14T02:41:01.642Z,26.60
2023-02-14T02:43:36.961Z,32.70
2023-02-14T02:46:30.209Z,29.20
2023-02-14T02:49:40.136Z,36.10
2023-02-14T02:52:56.976Z,32.40
2023-02-14T02:56:09.241Z,37.00
2023-02-14T02:58:43.073Z,32.40
2023-02-14T03:02:02.613Z,34.20
2023-02-14T03:04:52.999Z,32.90
2023-02-14T03:07:40.475Z,28.40
2023-02-14T03:10:13.794Z,29.10
2023-02-14T03:12:57.518Z,30.30
2023-02-14T03:15:41.638Z,32.40
2023-02-14T03:18:29.936Z,30.70
2023-02-14T03:21:06.649Z,33.30
2023-02-14T03:23:40.494Z,32.20
2023-02-14T03:26:14.315Z,28.90
2023-02-14T03:29:10.199Z,27.10
2023-02-14T03:32:23.100Z,32.50
2023-02-14T03:35:03.223Z,28.40
2023-02-14T03:37:41.792Z,22.90
2023-02-14T03:40:28.392Z,32.90
2023-02-14T03:43:03.047Z,32.70
2023-02-14T03:45:40.639Z,27.40
2023-02-14T03:48:12.584Z,27.60
2023-02-14T03:50:44.986Z,30.20
2023-02-14T03:53:19.252Z,29.70
2023-02-14T03:56:12.680Z,30.70
2023-02-14T03:58:47.252Z,30.70
2023-02-14T04:01:23.366Z,29.00
2023-02-14T04:03:54.844Z,30.40
2023-02-14T04:06:23.416Z,30.20
2023-02-14T04:08:51.919Z,34.10
2023-02-14T04:11:20.003Z,30.80
2023-02-14T04:13:48.029Z,39.40
2023-02-14T04:16:16.197Z,22.90
2023-02-14T04:19:02.907Z,31.70
2023-02-14T04:21:30.954Z,32.70
2023-02-14T04:23:58.890Z,29.00
2023-02-14T04:26:26.889Z,31.70
2023-02-14T04:28:54.865Z,33.00
2023-02-14T04:31:23.071Z,31.70
2023-02-14T04:33:51.428Z,34.90
2023-02-14T04:36:19.427Z,41.20
2023-02-14T04:38:47.250Z,31.00
2023-02-14T04:41:15.340Z,28.40
2023-02-14T04:43:43.407Z,36.00
2023-02-14T04:46:11.435Z,31.00
2023-02-14T04:48:39.594Z,32.90
2023-02-14T04:51:07.670Z,30.90
2023-02-14T04:53:40.257Z,34.10
2023-02-14T04:56:08.290Z,31.70
2023-02-14T04:58:36.179Z,30.20
2023-02-14T05:01:04.220Z,31.50
2023-02-14T05:03:32.123Z,32.40
2023-02-14T05:06:00.002Z,28.20
2023-02-14T05:08:27.956Z,29.10
2023-02-14T05:10:55.918Z,29.80
2023-02-14T05:13:24.182Z,34.20
2023-02-14T05:15:52.378Z,31.00
2023-02-14T05:18:20.576Z,37.50
2023-02-14T05:20:52.467Z,27.20
2023-02-14T05:23:22.367Z,31.50
2023-02-14T05:25:52.208Z,27.60
2023-02-14T05:28:20.196Z,26.20
2023-02-14T05:30:48.310Z,26.10
2023-02-14T05:33:16.227Z,27.10
2023-02-14T05:35:44.868Z,26.60
2023-02-14T05:38:14.004Z,27.00
2023-02-14T05:40:42.834Z,21.60
2023-02-14T05:43:10.811Z,23.00
2023-02-14T05:45:38.799Z,25.20
2023-02-14T05:48:06.727Z,21.90
2023-02-14T05:50:35.003Z,21.10
2023-02-14T05:53:02.989Z,23.30
2023-02-14T05:55:31.032Z,17.70
2023-02-14T05:57:59.029Z,23.30
2023-02-14T06:00:27.083Z,16.60
2023-02-14T06:02:55.235Z,17.00
2023-02-14T06:05:23.303Z,18.40
2023-02-14T06:07:51.899Z,19.10
2023-02-14T06:10:22.051Z,19.30
2023-02-14T06:12:52.513Z,21.00
2023-02-14T06:15:21.254Z,17.70
2023-02-14T06:17:54.877Z,19.60
2023-02-14T06:20:24.421Z,22.60
2023-02-14T06:22:52.948Z,22.70
2023-02-14T06:25:22.707Z,19.20
2023-02-14T06:27:50.741Z,21.30
2023-02-14T06:30:19.256Z,21.20
2023-02-14T06:32:47.327Z,20.20
2023-02-14T06:35:16.220Z,18.80
2023-02-14T06:37:45.459Z,26.80
2023-02-14T06:40:14.876Z,21.90
2023-02-14T06:42:42.960Z,21.40
2023-02-14T06:45:11.233Z,21.10
2023-02-14T06:47:39.979Z,22.80
2023-02-14T06:50:11.653Z,20.20
2023-02-14T06:52:40.052Z,20.40
2023-02-14T06:55:09.778Z,16.10
2023-02-14T06:57:37.978Z,16.60
2023-02-14T07:00:07.454Z,15.30
2023-02-14T07:02:35.838Z,19.70
2023-02-14T07:05:04.497Z,22.60
2023-02-14T07:07:32.985Z,17.10
2023-02-14T07:10:01.192Z,17.40
2023-02-14T07:12:29.302Z,16.00
2023-02-14T07:14:57.344Z,19.90
2023-02-14T07:17:25.760Z,16.30
2023-02-14T07:19:53.902Z,16.70
2023-02-14T07:22:22.435Z,19.00
2023-02-14T07:24:50.468Z,16.00
2023-02-14T07:27:18.655Z,18.10
2023-02-14T07:29:46.810Z,18.70
2023-02-14T07:32:14.941Z,17.00
2023-02-14T07:34:43.083Z,16.10
2023-02-14T07:37:11.758Z,19.30
2023-02-14T07:39:39.634Z,21.00
2023-02-14T07:42:08.447Z,24.00
2023-02-14T07:44:40.148Z,22.00
2023-02-14T07:47:09.890Z,21.70
2023-02-14T07:49:38.136Z,21.30
2023-02-14T07:52:06.554Z,23.60
2023-02-14T07:54:54.825Z,20.50
2023-02-14T07:57:22.856Z,19.90
2023-02-14T07:59:50.738Z,22.20
2023-02-14T08:02:20.792Z,18.30
2023-02-14T08:04:48.889Z,19.70
2023-02-14T08:07:16.897Z,20.40
2023-02-14T08:09:44.880Z,23.80
2023-02-14T08:12:31.299Z,22.20
2023-02-14T08:15:19.215Z,22.60
2023-02-14T08:17:47.162Z,20.40
2023-02-14T08:20:15.049Z,20.30
2023-02-14T08:22:43.071Z,22.00
2023-02-14T08:25:11.060Z,22.00
2023-02-14T08:27:39.582Z,19.70
2023-02-14T08:30:08.842Z,20.50
2023-02-14T08:32:37.162Z,21.10
2023-02-14T08:35:05.395Z,19.40
2023-02-14T08:37:33.379Z,31.10
2023-02-14T08:40:01.526Z,21.90
2023-02-14T08:42:30.031Z,22.60
2023-02-14T08:44:57.999Z,24.10
2023-02-14T08:47:26.025Z,22.60
2023-02-14T08:49:53.986Z,22.10
2023-02-14T08:52:21.954Z,20.80
2023-02-14T08:54:50.263Z,20.70
2023-02-14T08:57:18.297Z,21.10
2023-02-14T08:59:46.300Z,18.20
2023-02-14T09:02:16.388Z,22.40
2023-02-14T09:04:45.059Z,24.40
2023-02-14T09:07:13.758Z,25.80
2023-02-14T09:09:41.949Z,23.80
2023-02-14T09:12:10.825Z,20.50
2023-02-14T09:14:43.972Z,27.80
2023-02-14T09:17:13.882Z,21.20
2023-02-14T09:19:41.839Z,21.90
2023-02-14T09:22:11.521Z,22.50
2023-02-14T09:24:41.502Z,21.70
2023-02-14T09:27:09.614Z,25.60
2023-02-14T09:29:37.776Z,23.50
2023-02-14T09:32:05.900Z,21.10
2023-02-14T09:34:35.325Z,22.50
2023-02-14T09:37:06.056Z,21.70
2023-02-14T09:39:36.065Z,19.40
2023-02-14T09:42:37.110Z,20.80
2023-02-14T09:45:09.769Z,20.60
2023-02-14T09:48:02.770Z,26.20
2023-02-14T09:50:35.486Z,21.90
2023-02-14T09:53:13.988Z,23.30
2023-02-14T09:56:20.630Z,22.30
2023-02-14T09:59:01.216Z,25.40
2023-02-14T10:01:36.798Z,25.00
2023-02-14T10:04:41.193Z,22.90
2023-02-14T10:07:31.403Z,22.30
2023-02-14T10:10:04.041Z,21.60
2023-02-14T10:12:37.867Z,23.70
2023-02-14T10:15:34.001Z,21.90
2023-02-14T10:18:14.866Z,20.70
2023-02-14T10:20:46.047Z,21.40
2023-02-14T10:23:24.765Z,24.80
2023-02-14T10:26:12.937Z,22.70
2023-02-14T10:28:44.545Z,25.70
2023-02-14T10:31:29.422Z,24.60
2023-02-14T10:34:10.389Z,18.60
2023-02-14T10:36:55.891Z,20.80
2023-02-14T10:40:01.512Z,17.30
2023-02-14T10:42:45.169Z,17.70
2023-02-14T10:45:35.287Z,18.80
2023-02-14T10:48:16.796Z,23.00
2023-02-14T10:50:58.791Z,21.60
2023-02-14T10:53:47.364Z,18.30
2023-02-14T10:56:21.716Z,17.00
2023-02-14T10:58:52.641Z,18.60
2023-02-14T11:01:20.777Z,19.30
2023-02-14T11:03:56.106Z,21.30
2023-02-14T11:06:24.494Z,23.70
2023-02-14T11:08:52.443Z,21.70
2023-02-14T11:11:20.416Z,17.50
2023-02-14T11:13:48.947Z,17.40
2023-02-14T11:16:37.094Z,19.60
2023-02-14T11:19:14.618Z,18.90
2023-02-14T11:21:45.542Z,16.10
2023-02-14T11:24:36.051Z,20.40
2023-02-14T11:27:17.241Z,15.70
2023-02-14T11:29:52.348Z,18.00
2023-02-14T11:32:31.131Z,18.70
2023-02-14T11:35:04.018Z,13.70
2023-02-14T11:37:38.300Z,15.60
2023-02-14T11:40:07.648Z,14.00
2023-02-14T11:42:41.735Z,14.50
2023-02-14T11:45:31.456Z,18.40
2023-02-14T11:48:17.770Z,16.40
2023-02-14T11:51:15.735Z,14.40
2023-02-14T11:53:56.527Z,17.90
2023-02-14T11:56:24.605Z,18.10
2023-02-14T11:58:55.772Z,16.10
2023-02-14T12:01:26.864Z,20.70
2023-02-14T12:03:57.541Z,14.60
2023-02-14T12:06:29.023Z,13.10
2023-02-14T12:09:22.215Z,13.60
2023-02-14T12:12:02.717Z,13.60
2023-02-14T12:14:33.815Z,13.80
2023-02-14T12:17:21.656Z,12.50
2023-02-14T12:20:11.838Z,14.10
2023-02-14T12:23:24.032Z,15.80
2023-02-14T12:26:01.520Z,12.30
2023-02-14T12:28:38.664Z,18.80
2023-02-14T12:31:12.571Z,12.90
2023-02-14T12:33:41.374Z,13.80
2023-02-14T12:36:14.694Z,11.30
2023-02-14T12:39:00.791Z,14.70
2023-02-14T12:42:05.774Z,14.00
2023-02-14T12:44:46.148Z,17.00
2023-02-14T12:47:41.797Z,14.70
2023-02-14T12:50:33.897Z,14.90
2023-02-14T12:53:26.381Z,16.60
2023-02-14T12:56:15.683Z,18.00
2023-02-14T12:58:54.538Z,12.20
2023-02-14T13:01:39.023Z,19.50
2023-02-14T13:04:20.801Z,10.70
2023-02-14T13:06:57.367Z,13.70
2023-02-14T13:12:45.976Z,15.20
2023-02-14T13:15:40.629Z,14.50
2023-02-14T13:18:33.641Z,13.70
2023-02-14T13:21:05.211Z,14.20
2023-02-14T13:23:56.092Z,14.50
2023-02-14T13:26:34.992Z,15.20
2023-02-14T13:29:10.664Z,16.70
2023-02-14T13:31:39.269Z,16.40
2023-02-14T13:34:28.196Z,17.30
2023-02-14T13:36:58.920Z,18.20
2023-02-14T13:39:37.781Z,15.70
2023-02-14T13:42:07.338Z,16.60
2023-02-14T13:44:53.105Z,17.00
2023-02-14T13:47:27.126Z,15.50
2023-02-14T13:49:57.034Z,21.10
2023-02-14T13:52:47.423Z,19.80
2023-02-14T13:55:26.303Z,14.10
2023-02-14T13:58:24.293Z,17.80
2023-02-14T14:00:53.589Z,13.70
2023-02-14T14:03:27.786Z,17.50
2023-02-14T14:06:10.935Z,17.90
2023-02-14T14:08:49.371Z,18.00
2023-02-14T14:11:26.876Z,16.90
2023-02-14T14:14:14.628Z,16.20
2023-02-14T14:16:57.670Z,21.20
2023-02-14T14:19:25.798Z,18.80
2023-02-14T14:22:01.978Z,18.80
2023-02-14T14:24:36.133Z,18.80
2023-02-14T14:27:07.257Z,15.00
2023-02-14T14:29:39.051Z,23.00
2023-02-14T14:32:15.489Z,18.60
2023-02-14T14:34:52.678Z,15.40
2023-02-14T14:37:23.516Z,14.60
2023-02-14T14:39:57.602Z,16.90
2023-02-14T14:42:30.679Z,15.50
2023-02-14T14:45:06.569Z,15.60
2023-02-14T14:47:46.136Z,18.20
2023-02-14T14:50:24.705Z,18.30
2023-02-14T14:53:00.303Z,19.70
2023-02-14T14:55:45.206Z,20.10
2023-02-14T14:58:37.854Z,22.50
2023-02-14T15:01:10.936Z,24.00
2023-02-14T15:03:39.738Z,23.40
2023-02-14T15:06:13.988Z,24.60
2023-02-14T15:08:42.402Z,22.60
2023-02-14T15:11:39.018Z,23.60
2023-02-14T15:14:12.132Z,25.70
2023-02-14T15:16:50.638Z,22.90
2023-02-14T15:19:33.391Z,21.10
2023-02-14T15:22:07.744Z,19.20
2023-02-14T15:24:38.289Z,19.40
2023-02-14T15:27:15.829Z,25.00
2023-02-14T15:30:00.815Z,21.80
2023-02-14T15:32:32.254Z,20.70
2023-02-14T15:35:03.459Z,24.20
2023-02-14T15:37:32.383Z,21.90
2023-02-14T15:40:00.703Z,20.50
2023-02-14T15:42:33.700Z,21.60
2023-02-14T15:45:14.081Z,20.90
2023-02-14T15:47:45.976Z,20.00
2023-02-14T15:50:18.312Z,20.70
2023-02-14T15:52:48.031Z,23.00
2023-02-14T15:55:20.106Z,18.40
2023-02-14T15:57:57.366Z,23.60
2023-02-14T16:00:26.850Z,22.00
2023-02-14T16:03:00.410Z,21.80
2023-02-14T16:05:29.927Z,21.50
2023-02-14T16:08:29.516Z,21.10
2023-02-14T16:11:03.443Z,23.90
2023-02-14T16:13:33.577Z,18.60
2023-02-14T16:16:08.826Z,21.30
2023-02-14T16:18:52.928Z,23.40
2023-02-14T16:21:36.505Z,24.20
2023-02-14T16:24:07.485Z,20.90
2023-02-14T16:26:38.239Z,24.80
2023-02-14T16:29:11.015Z,26.30
2023-02-14T16:32:06.129Z,28.30
2023-02-14T16:34:31.954Z,35.30
2023-02-14T16:37:07.428Z,23.60
2023-02-14T16:39:36.110Z,26.80
2023-02-14T16:42:04.926Z,26.10
2023-02-14T16:44:33.100Z,25.70
2023-02-14T16:47:01.992Z,24.10
2023-02-14T16:49:30.134Z,30.50
2023-02-14T16:51:58.316Z,25.70
2023-02-14T16:54:26.935Z,25.90
2023-02-14T16:57:03.538Z,25.00
2023-02-14T16:59:31.783Z,17.00
2023-02-14T17:01:59.885Z,18.10
2023-02-14T17:04:27.927Z,16.50
2023-02-14T17:06:57.546Z,17.30
2023-02-14T17:09:29.896Z,21.00
2023-02-14T17:12:04.354Z,18.70
2023-02-14T17:14:39.792Z,18.70
2023-02-14T17:17:07.814Z,15.50
2023-02-14T17:19:36.636Z,15.50
2023-02-14T17:22:05.316Z,18.30
2023-02-14T17:24:33.410Z,15.70
2023-02-14T17:27:01.395Z,16.80
2023-02-14T17:29:29.477Z,16.90
2023-02-14T17:31:57.822Z,17.60
2023-02-14T17:34:26.008Z,19.00
2023-02-14T17:36:54.107Z,15.70
2023-02-14T17:39:22.793Z,13.60
2023-02-14T17:41:50.744Z,12.80
2023-02-14T17:44:18.638Z,10.60
2023-02-14T17:46:46.874Z,12.10
2023-02-14T17:49:14.945Z,17.50
2023-02-14T17:51:42.951Z,17.10
2023-02-14T17:54:12.316Z,13.90
2023-02-14T17:56:40.406Z,12.30
2023-02-14T17:59:08.385Z,15.60
2023-02-14T18:01:36.476Z,11.40
2023-02-14T18:04:06.075Z,14.10
2023-02-14T18:06:34.040Z,9.10
2023-02-14T18:09:05.804Z,16.00
2023-02-14T18:11:33.921Z,12.80
2023-02-14T18:14:03.767Z,14.30
2023-02-14T18:16:31.785Z,14.80
2023-02-14T18:19:04.290Z,15.80
2023-02-14T18:21:35.651Z,16.50
2023-02-14T18:24:04.193Z,15.20
2023-02-14T18:26:33.223Z,13.60
2023-02-14T18:29:06.569Z,16.00
2023-02-14T18:31:36.791Z,16.60
2023-02-14T18:34:05.169Z,12.60
2023-02-14T18:36:35.579Z,11.80
2023-02-14T18:39:05.060Z,14.10
2023-02-14T18:41:33.404Z,13.10
2023-02-14T18:44:01.692Z,15.70
2023-02-14T18:46:33.876Z,14.10
2023-02-14T18:49:04.247Z,11.80
2023-02-14T18:51:35.674Z,16.60
2023-02-14T18:54:04.617Z,13.40
2023-02-14T18:56:35.852Z,12.80
2023-02-14T18:59:07.145Z,14.10
2023-02-14T19:01:38.664Z,17.00
2023-02-14T19:04:09.034Z,15.60
2023-02-14T19:06:37.020Z,15.60
2023-02-14T19:09:12.602Z,14.90
2023-02-14T19:11:41.004Z,16.40
2023-02-14T19:14:10.698Z,14.20
2023-02-14T19:16:44.149Z,12.90
2023-02-14T19:19:12.606Z,14.00
2023-02-14T19:21:40.754Z,12.70
2023-02-14T19:24:09.095Z,12.60
2023-02-14T19:26:40.825Z,10.80
2023-02-14T19:29:15.760Z,15.20
2023-02-14T19:31:48.248Z,12.20
2023-02-14T19:34:29.606Z,10.90
2023-02-14T19:37:00.657Z,11.20
2023-02-14T19:39:30.061Z,14.40
2023-02-14T19:41:59.072Z,11.30
2023-02-14T19:44:29.426Z,15.10
2023-02-14T19:47:01.907Z,15.20
2023-02-14T19:49:32.152Z,11.50
2023-02-14T19:52:00.208Z,13.00
2023-02-14T19:54:30.134Z,19.10
2023-02-14T19:56:59.000Z,15.40
2023-02-14T19:59:27.992Z,17.00
2023-02-14T20:01:57.606Z,18.40
2023-02-14T20:04:29.093Z,16.60
2023-02-14T20:06:57.757Z,13.00
2023-02-14T20:09:26.021Z,17.30
2023-02-14T20:11:56.334Z,15.80
2023-02-14T20:14:27.897Z,14.30
2023-02-14T20:16:58.338Z,15.10
2023-02-14T20:19:30.464Z,17.50
2023-02-14T20:21:59.471Z,17.50
2023-02-14T20:24:30.775Z,16.50
2023-02-14T20:27:00.602Z,16.00
2023-02-14T20:29:29.077Z,16.20
2023-02-14T20:32:00.099Z,14.90
2023-02-14T20:34:28.529Z,17.30
2023-02-14T20:36:59.300Z,17.00
2023-02-14T20:39:33.315Z,17.90
2023-02-14T20:42:02.014Z,15.30
2023-02-14T20:44:30.785Z,15.70
2023-02-14T20:46:58.957Z,13.30
2023-02-14T20:49:28.909Z,15.40
2023-02-14T20:51:58.942Z,17.90
2023-02-14T20:54:28.340Z,14.70
2023-02-14T20:56:57.941Z,16.50
2023-02-14T20:59:29.103Z,15.90
2023-02-14T21:01:58.842Z,14.90
2023-02-14T21:04:27.742Z,18.20
2023-02-14T21:06:57.804Z,21.00
2023-02-14T21:09:25.920Z,16.70
2023-02-14T21:11:54.148Z,14.90
2023-02-14T21:14:22.351Z,18.00
2023-02-14T21:16:50.407Z,21.90
2023-02-14T21:19:18.864Z,16.80
2023-02-14T21:21:47.090Z,19.00
2023-02-14T21:24:16.267Z,22.30
2023-02-14T21:26:45.174Z,17.20
2023-02-14T21:29:13.178Z,20.00
2023-02-14T21:31:42.486Z,18.50
2023-02-14T21:34:11.198Z,16.80
2023-02-14T21:36:39.109Z,17.10
2023-02-14T21:39:07.572Z,19.10
2023-02-14T21:41:36.548Z,20.20
2023-02-14T21:44:05.521Z,18.60
2023-02-14T21:46:38.319Z,20.30
2023-02-14T21:49:25.056Z,18.10
2023-02-14T21:51:53.076Z,19.60
2023-02-14T21:54:21.173Z,21.10
2023-02-14T21:56:49.914Z,25.00
2023-02-14T21:59:18.018Z,19.60
2023-02-14T22:01:46.054Z,19.40
2023-02-14T22:04:14.214Z,21.80
2023-02-14T22:06:43.056Z,23.60
2023-02-14T22:09:13.875Z,24.30
2023-02-14T22:11:42.126Z,24.90
2023-02-14T22:14:10.268Z,25.40
2023-02-14T22:16:38.475Z,24.80
2023-02-14T22:19:08.040Z,20.30
2023-02-14T22:21:36.294Z,24.70
2023-02-14T22:24:04.742Z,22.70
2023-02-14T22:26:38.722Z,25.30
2023-02-14T22:29:09.609Z,22.90
2023-02-14T22:31:41.030Z,21.50
2023-02-14T22:34:12.061Z,25.10
2023-02-14T22:36:41.968Z,23.30
2023-02-14T22:39:14.442Z,25.80
2023-02-14T22:41:43.344Z,23.30
2023-02-14T22:44:13.285Z,20.00
2023-02-14T22:46:41.430Z,20.60
2023-02-14T22:49:09.427Z,20.30
2023-02-14T22:51:39.724Z,23.80
2023-02-14T22:54:12.414Z,19.80
2023-02-14T22:56:48.360Z,23.10
2023-02-14T22:59:22.234Z,26.40
2023-02-14T23:01:51.833Z,24.40
2023-02-14T23:04:24.588Z,18.40
2023-02-14T23:06:53.685Z,20.50
2023-02-14T23:09:22.710Z,21.50
2023-02-14T23:11:51.196Z,23.60
2023-02-14T23:14:37.956Z,24.30
2023-02-14T23:17:24.647Z,21.60
2023-02-14T23:20:11.818Z,19.00
2023-02-14T23:22:41.133Z,23.00
2023-02-14T23:25:11.384Z,20.90
2023-02-14T23:27:47.311Z,19.00
2023-02-14T23:30:17.699Z,20.60
2023-02-14T23:32:45.873Z,28.50
2023-02-14T23:35:14.068Z,25.00
2023-02-14T23:37:42.112Z,25.70
2023-02-14T23:40:10.471Z,27.90
2023-02-14T23:42:38.639Z,22.90
2023-02-14T23:45:26.313Z,23.20
2023-02-14T23:47:54.409Z,26.30
2023-02-14T23:50:22.525Z,24.70
2023-02-14T23:52:50.551Z,25.60
2023-02-14T23:55:18.660Z,27.50
2023-02-14T23:57:46.781Z,22.70
